Time;durP1;ratioP1;P1;durP2;ratioP2;P2;SDS_P1;SDS_P2;PMS_P1;PMS_P2;Temp;Humidity;BMP_temperature;BMP_pressure;BME280_temperature;BME280_humidity;BME280_pressure;Samples;Min_cycle;Max_cycle;Signal;HPM_P1;HPM_P2
2023/08/27 00:01:48;;;;;;;1.87;1.77;;;;;;;17.34;56.32;100839.63;4969632;28;97038;-57
2023/08/27 00:04:13;;;;;;;1.50;1.40;;;;;;;17.38;56.16;100840.06;4972125;28;97169;-56
2023/08/27 00:06:38;;;;;;;1.80;1.70;;;;;;;17.36;56.13;100823.91;4972718;28;97005;-56
2023/08/27 00:09:04;;;;;;;1.70;1.60;;;;;;;17.34;56.37;100829.25;4971842;28;98406;-56
2023/08/27 00:11:29;;;;;;;4.00;1.60;;;;;;;17.32;56.38;100820.69;4972693;28;97295;-56
2023/08/27 00:13:55;;;;;;;1.70;1.60;;;;;;;17.32;56.44;100820.69;4974127;28;97150;-57
2023/08/27 00:16:20;;;;;;;2.03;1.83;;;;;;;17.34;56.52;100809.03;4973542;28;97350;-55
2023/08/27 00:18:46;;;;;;;1.80;1.70;;;;;;;17.35;56.64;100816.09;4970286;28;97364;-57
2023/08/27 00:21:11;;;;;;;3.10;1.67;;;;;;;17.38;56.49;100812.25;4968397;28;96815;-57
2023/08/27 00:23:39;;;;;;;1.47;1.37;;;;;;;17.41;56.56;100800.78;4974454;28;97382;-56
2023/08/27 00:26:05;;;;;;;1.80;1.70;;;;;;;17.37;56.50;100796.81;4971099;28;96932;-56
2023/08/27 00:28:30;;;;;;;2.00;1.90;;;;;;;17.36;56.67;100798.88;4974478;28;97411;-56
2023/08/27 00:31:01;;;;;;;1.70;1.60;;;;;;;17.35;56.99;100807.75;4972960;28;97073;-56
2023/08/27 00:33:27;;;;;;;2.03;1.70;;;;;;;17.39;56.84;100816.50;4971562;28;97195;-55
2023/08/27 00:35:53;;;;;;;1.77;1.67;;;;;;;17.41;56.83;100811.91;4971845;28;96971;-56
2023/08/27 00:38:19;;;;;;;1.80;1.80;;;;;;;17.39;56.77;100806.13;4970564;28;97337;-55
2023/08/27 00:40:44;;;;;;;1.57;1.47;;;;;;;17.36;56.85;100798.88;4974730;28;97333;-57
2023/08/27 00:43:09;;;;;;;1.57;1.47;;;;;;;17.31;56.81;100799.72;4974719;28;97264;-56
2023/08/27 00:45:35;;;;;;;2.00;1.90;;;;;;;17.31;56.86;100812.88;4974706;28;97163;-56
2023/08/27 00:48:00;;;;;;;1.83;1.70;;;;;;;17.34;56.92;100803.47;4968351;28;97296;-56
2023/08/27 00:50:26;;;;;;;1.53;1.43;;;;;;;17.35;57.15;100797.38;4974327;28;97203;-57
2023/08/27 00:52:52;;;;;;;2.33;2.00;;;;;;;17.37;57.20;100783.66;4974170;28;96748;-59
2023/08/27 00:55:18;;;;;;;1.53;1.43;;;;;;;17.40;57.22;100785.41;4972384;28;97200;-56
2023/08/27 00:57:43;;;;;;;1.50;1.40;;;;;;;17.43;57.18;100780.78;4968751;28;108376;-55
2023/08/27 01:00:09;;;;;;;1.80;1.70;;;;;;;17.46;57.11;100786.03;4971869;28;97569;-55
2023/08/27 01:02:35;;;;;;;1.83;1.70;;;;;;;17.42;57.18;100782.81;4970109;28;96740;-56
2023/08/27 01:05:00;;;;;;;1.73;1.43;;;;;;;17.42;57.38;100782.81;4972685;28;97104;-56
2023/08/27 01:07:39;;;;;;;1.70;1.60;;;;;;;17.45;57.81;100783.78;4973147;28;108465;-56
2023/08/27 01:10:22;;;;;;;2.30;1.73;;;;;;;17.48;57.86;100777.13;4970582;28;96691;-56
2023/08/27 01:13:02;;;;;;;1.80;1.70;;;;;;;17.51;57.87;100787.97;4969751;28;97092;-56
2023/08/27 01:15:28;;;;;;;1.40;1.30;;;;;;;17.54;57.35;100795.22;4969157;28;97002;-57
2023/08/27 01:17:55;;;;;;;1.70;1.60;;;;;;;17.59;57.51;100805.50;4970994;28;97174;-57
2023/08/27 01:20:22;;;;;;;1.70;1.53;;;;;;;17.62;57.33;100801.66;4967934;28;96834;-56
2023/08/27 01:22:47;;;;;;;2.13;2.03;;;;;;;17.62;57.32;100801.66;4970085;28;96965;-57
2023/08/27 01:25:17;;;;;;;1.60;1.50;;;;;;;17.65;57.27;100785.91;4967523;28;97053;-56
2023/08/27 01:27:50;;;;;;;2.37;1.50;;;;;;;17.64;57.69;100773.28;4964107;28;97067;-57
2023/08/27 01:30:32;;;;;;;1.80;1.70;;;;;;;17.64;58.12;100757.34;4968506;28;97020;-57
2023/08/27 01:33:10;;;;;;;2.50;1.73;;;;;;;17.59;57.55;100738.72;4969653;28;96707;-56
2023/08/27 01:35:36;;;;;;;1.80;1.70;;;;;;;17.55;57.47;100713.28;4969298;28;96527;-56
2023/08/27 01:38:02;;;;;;;1.70;1.60;;;;;;;17.54;57.77;100725.69;4970063;28;97408;-56
2023/08/27 01:40:27;;;;;;;1.70;1.60;;;;;;;17.55;57.79;100721.63;4968288;28;98350;-56
2023/08/27 01:42:53;;;;;;;1.57;1.47;;;;;;;17.56;57.73;100714.75;4972749;28;96685;-56
2023/08/27 01:45:19;;;;;;;2.60;1.40;;;;;;;17.56;57.69;100695.28;4968402;28;97024;-55
2023/08/27 01:47:44;;;;;;;1.77;1.67;;;;;;;17.50;57.64;100700.22;4970777;28;96978;-56
2023/08/27 01:50:10;;;;;;;1.77;1.67;;;;;;;17.42;57.67;100691.03;4969060;28;97193;-56
2023/08/27 01:52:35;;;;;;;1.83;1.73;;;;;;;17.42;57.89;100696.59;4971531;28;97192;-57
2023/08/27 01:55:03;;;;;;;2.83;2.37;;;;;;;17.41;57.82;100697.16;4970576;28;96760;-57
2023/08/27 01:57:28;;;;;;;1.80;1.70;;;;;;;17.42;57.88;100696.59;4971668;28;97278;-57
2023/08/27 01:59:54;;;;;;;5.07;2.00;;;;;;;17.43;57.76;100702.91;4970188;28;96759;-57
2023/08/27 02:02:19;;;;;;;2.27;1.60;;;;;;;17.46;57.79;100715.72;4958160;28;97154;-57
2023/08/27 02:04:45;;;;;;;1.67;1.63;;;;;;;17.48;58.08;100733.38;4972255;28;97354;-57
2023/08/27 02:07:10;;;;;;;2.43;1.90;;;;;;;17.47;57.80;100726.34;4969572;28;97037;-56
2023/08/27 02:09:35;;;;;;;2.20;2.00;;;;;;;17.47;57.91;100723.56;4969922;28;108136;-57
2023/08/27 02:12:03;;;;;;;1.97;1.87;;;;;;;17.44;57.64;100727.41;4968316;28;97095;-56
2023/08/27 02:14:28;;;;;;;2.10;2.00;;;;;;;17.42;57.93;100704.94;4970245;28;97213;-57
2023/08/27 02:16:53;;;;;;;2.17;2.07;;;;;;;17.40;57.86;100698.41;4970901;28;97778;-56
2023/08/27 02:19:18;;;;;;;2.53;1.77;;;;;;;17.38;57.74;100714.91;4970222;28;113501;-55
2023/08/27 02:21:44;;;;;;;1.97;1.87;;;;;;;17.31;57.92;100719.09;4969823;28;97197;-55
2023/08/27 02:24:09;;;;;;;3.07;2.07;;;;;;;17.26;57.79;100714.38;4972207;28;97022;-57
2023/08/27 02:26:35;;;;;;;2.13;2.00;;;;;;;17.17;57.92;100701.66;4970497;28;97365;-57
2023/08/27 02:29:01;;;;;;;2.83;1.80;;;;;;;17.16;57.84;100702.97;4965642;28;99193;-56
2023/08/27 02:31:26;;;;;;;2.20;2.00;;;;;;;17.14;58.02;100702.75;4969909;28;97139;-56
2023/08/27 02:33:52;;;;;;;2.10;1.93;;;;;;;17.16;58.16;100718.88;4968810;28;97663;-56
2023/08/27 02:36:17;;;;;;;2.00;1.90;;;;;;;17.16;57.99;100730.78;4963707;28;97801;-56
2023/08/27 02:38:42;;;;;;;1.87;1.77;;;;;;;17.19;58.07;100745.59;4969992;28;97111;-57
2023/08/27 02:41:08;;;;;;;2.17;2.03;;;;;;;17.16;58.11;100736.31;4972567;28;97419;-55
2023/08/27 02:43:33;;;;;;;1.93;1.83;;;;;;;17.18;58.13;100735.78;4969978;28;97244;-55
2023/08/27 02:45:59;;;;;;;2.33;2.23;;;;;;;17.15;58.00;100718.13;4968013;28;97562;-55
2023/08/27 02:48:24;;;;;;;1.60;1.50;;;;;;;17.14;57.92;100710.34;4966476;28;97346;-55
2023/08/27 02:50:50;;;;;;;1.70;1.60;;;;;;;17.12;57.88;100726.81;4971665;28;96941;-56
2023/08/27 02:53:15;;;;;;;2.07;1.97;;;;;;;17.06;57.79;100712.25;4971065;28;96623;-54
2023/08/27 02:55:40;;;;;;;1.93;1.83;;;;;;;16.98;57.91;100698.28;4971370;28;97145;-56
2023/08/27 02:58:06;;;;;;;1.83;1.73;;;;;;;16.93;57.97;100690.03;4969395;28;96663;-57
2023/08/27 03:00:31;;;;;;;2.27;2.17;;;;;;;16.92;58.06;100691.31;4967107;28;98541;-56
2023/08/27 03:02:56;;;;;;;1.80;1.70;;;;;;;16.91;58.16;100681.47;4971726;28;97316;-57
2023/08/27 03:05:22;;;;;;;2.10;2.00;;;;;;;16.89;58.02;100690.38;4970683;28;106678;-55
2023/08/27 03:07:47;;;;;;;2.07;1.93;;;;;;;16.88;58.25;100668.66;4969403;28;96716;-56
2023/08/27 03:10:14;;;;;;;2.20;2.10;;;;;;;16.87;58.11;100670.69;4967225;28;97381;-58
2023/08/27 03:12:39;;;;;;;1.97;1.77;;;;;;;16.88;58.15;100669.44;4972019;28;97188;-57
2023/08/27 03:15:04;;;;;;;3.33;2.13;;;;;;;16.86;58.09;100668.47;4965569;28;100928;-56
2023/08/27 03:17:30;;;;;;;3.07;2.07;;;;;;;16.82;57.92;100666.00;4967121;28;98337;-55
2023/08/27 03:19:55;;;;;;;2.57;2.47;;;;;;;16.81;58.23;100672.09;4968671;28;97133;-56
2023/08/27 03:22:20;;;;;;;2.30;2.03;;;;;;;16.77;58.23;100682.78;4965393;28;97045;-56
2023/08/27 03:24:46;;;;;;;2.20;2.10;;;;;;;16.75;58.14;100677.75;4971237;28;103810;-56
2023/08/27 03:27:12;;;;;;;2.30;2.20;;;;;;;16.66;58.13;100658.75;4971810;28;97224;-57
2023/08/27 03:29:38;;;;;;;2.57;2.37;;;;;;;16.60;58.19;100663.63;4971699;28;96770;-56
2023/08/27 03:32:04;;;;;;;2.50;2.30;;;;;;;16.57;58.35;100667.50;4965721;28;97307;-57
2023/08/27 03:34:29;;;;;;;2.60;2.40;;;;;;;16.58;58.43;100679.38;4968888;28;97456;-55
2023/08/27 03:36:54;;;;;;;2.10;2.00;;;;;;;16.59;58.46;100683.63;4969384;28;103619;-56
2023/08/27 03:39:20;;;;;;;2.10;2.00;;;;;;;16.59;58.40;100664.19;4972269;28;97039;-56
2023/08/27 03:41:45;;;;;;;2.03;1.93;;;;;;;16.58;58.39;100662.69;4971353;28;97012;-56
2023/08/27 03:44:10;;;;;;;3.13;2.10;;;;;;;16.55;58.38;100653.41;4974230;28;97203;-56
2023/08/27 03:46:36;;;;;;;2.20;2.00;;;;;;;16.51;58.50;100669.63;4973916;28;98136;-57
2023/08/27 03:49:02;;;;;;;2.30;2.10;;;;;;;16.52;58.52;100664.81;4974543;28;97442;-56
2023/08/27 03:51:28;;;;;;;2.30;2.10;;;;;;;16.50;58.59;100668.13;4968256;28;96819;-56
2023/08/27 03:53:57;;;;;;;1.90;1.80;;;;;;;16.52;58.61;100673.13;4972313;28;97059;-55
2023/08/27 03:56:23;;;;;;;1.90;1.80;;;;;;;16.49;58.58;100675.69;4968741;28;97764;-55
2023/08/27 03:58:49;;;;;;;2.10;2.00;;;;;;;16.49;58.57;100681.22;4971176;28;97121;-56
2023/08/27 04:01:14;;;;;;;2.10;2.00;;;;;;;16.47;58.66;100680.25;4971214;28;97347;-56
2023/08/27 04:03:39;;;;;;;2.47;2.37;;;;;;;16.43;58.69;100674.28;4972087;28;97221;-56
2023/08/27 04:06:06;;;;;;;2.80;2.60;;;;;;;16.41;58.66;100677.59;4970923;28;96997;-56
2023/08/27 04:08:31;;;;;;;2.20;2.10;;;;;;;16.42;58.80;100673.53;4969309;28;97010;-57
2023/08/27 04:10:57;;;;;;;3.10;2.07;;;;;;;16.44;58.84;100676.53;4973345;28;96996;-56
2023/08/27 04:13:22;;;;;;;1.80;1.70;;;;;;;16.45;58.79;100678.03;4973309;28;97288;-56
2023/08/27 04:16:05;;;;;;;2.40;2.23;;;;;;;16.47;59.06;100671.94;4968817;28;96694;-57
2023/08/27 04:18:30;;;;;;;3.73;2.10;;;;;;;16.47;58.54;100680.25;4972858;28;96757;-57
2023/08/27 04:20:56;;;;;;;2.00;1.90;;;;;;;16.45;58.76;100691.91;4972103;28;96900;-56
2023/08/27 04:23:21;;;;;;;2.13;2.03;;;;;;;16.47;58.83;100694.91;4975289;28;97906;-56
2023/08/27 04:25:47;;;;;;;2.20;2.10;;;;;;;16.46;58.75;100682.31;4975845;28;97124;-56
2023/08/27 04:28:14;;;;;;;2.33;2.13;;;;;;;16.41;58.88;100688.69;4970742;28;97356;-55
2023/08/27 04:30:39;;;;;;;2.07;1.97;;;;;;;16.40;58.62;100687.19;4969110;28;97310;-55
2023/08/27 04:33:05;;;;;;;2.90;2.20;;;;;;;16.37;58.83;100704.94;4971911;28;97096;-56
2023/08/27 04:35:31;;;;;;;2.83;2.60;;;;;;;16.37;58.93;100701.41;4973619;28;96842;-55
2023/08/27 04:37:57;;;;;;;2.43;2.27;;;;;;;16.38;58.84;100692.53;4972130;28;97186;-57
2023/08/27 04:40:22;;;;;;;2.43;2.13;;;;;;;16.34;58.86;100681.00;4971875;28;97348;-56
2023/08/27 04:42:48;;;;;;;2.50;2.30;;;;;;;16.34;58.98;100680.25;4972360;28;96844;-56
2023/08/27 04:45:13;;;;;;;4.60;2.63;;;;;;;16.34;59.01;100685.78;4970842;28;97567;-57
2023/08/27 04:47:38;;;;;;;2.37;2.27;;;;;;;16.34;59.02;100685.78;4970390;28;97034;-56
2023/08/27 04:50:05;;;;;;;2.17;2.07;;;;;;;16.34;58.96;100688.56;4973369;28;97163;-56
2023/08/27 04:52:30;;;;;;;2.07;1.97;;;;;;;16.33;58.97;100687.84;4971191;28;99145;-57
2023/08/27 04:54:55;;;;;;;2.50;2.37;;;;;;;16.31;59.01;100665.41;4971489;28;103083;-57
2023/08/27 04:57:21;;;;;;;2.70;2.10;;;;;;;16.31;59.10;100675.78;4974780;28;98241;-56
2023/08/27 04:59:46;;;;;;;4.77;2.50;;;;;;;16.31;59.12;100670.22;4972529;28;96833;-55
2023/08/27 05:02:11;;;;;;;3.20;2.27;;;;;;;16.34;58.94;100667.13;4970034;28;106855;-56
2023/08/27 05:04:37;;;;;;;2.40;2.20;;;;;;;16.34;59.07;100677.47;4969000;28;105196;-56
2023/08/27 05:07:02;;;;;;;2.30;2.10;;;;;;;16.35;59.06;100678.97;4975216;28;97573;-56
2023/08/27 05:09:27;;;;;;;2.03;1.87;;;;;;;16.36;59.26;100684.00;4969608;28;97015;-56
2023/08/27 05:11:53;;;;;;;2.70;2.00;;;;;;;16.39;59.19;100690.50;4971217;28;105100;-54
2023/08/27 05:14:18;;;;;;;2.40;2.30;;;;;;;16.39;59.22;100691.28;4974515;28;96709;-57
2023/08/27 05:16:44;;;;;;;1.90;1.80;;;;;;;16.39;59.17;100677.38;4974224;28;97157;-56
2023/08/27 05:19:09;;;;;;;2.43;2.23;;;;;;;16.38;59.19;100673.09;4971139;28;97343;-56
2023/08/27 05:21:35;;;;;;;2.20;2.10;;;;;;;16.33;59.28;100676.75;4971400;28;97436;-57
2023/08/27 05:24:00;;;;;;;1.97;1.80;;;;;;;16.31;59.31;100676.53;4970958;28;97529;-56
2023/08/27 05:26:25;;;;;;;2.30;2.10;;;;;;;16.29;59.43;100676.28;4965763;28;96960;-56
2023/08/27 05:28:51;;;;;;;2.10;2.00;;;;;;;16.32;59.28;100680.78;4970366;28;97330;-56
2023/08/27 05:31:16;;;;;;;2.60;2.40;;;;;;;16.34;59.48;100685.78;4969522;28;96827;-57
2023/08/27 05:33:42;;;;;;;2.40;2.30;;;;;;;16.33;59.41;100679.50;4968947;28;96883;-55
2023/08/27 05:36:07;;;;;;;2.17;1.97;;;;;;;16.34;59.43;100671.91;4971385;28;97478;-56
2023/08/27 05:38:32;;;;;;;2.50;2.33;;;;;;;16.36;59.45;100664.56;4972127;28;96846;-56
2023/08/27 05:40:58;;;;;;;2.10;2.00;;;;;;;16.39;59.51;100665.53;4970650;28;100500;-56
2023/08/27 05:43:24;;;;;;;3.10;2.07;;;;;;;16.44;59.42;100670.25;4958538;28;100470;-55
2023/08/27 05:45:49;;;;;;;2.50;2.40;;;;;;;16.47;59.55;100669.91;4972577;28;96873;-56
2023/08/27 05:48:14;;;;;;;2.17;2.07;;;;;;;16.50;59.61;100668.13;4970028;28;96879;-56
2023/08/27 05:50:40;;;;;;;2.40;2.30;;;;;;;16.56;59.62;100668.00;4965680;28;97892;-57
2023/08/27 05:53:05;;;;;;;1.97;1.87;;;;;;;16.60;59.49;100660.13;4967088;28;102111;-57
2023/08/27 05:55:31;;;;;;;2.20;2.10;;;;;;;16.62;59.55;100654.78;4972419;28;97002;-55
2023/08/27 05:57:56;;;;;;;2.50;2.00;;;;;;;16.63;59.64;100654.25;4968762;28;96892;-56
2023/08/27 06:00:21;;;;;;;6.13;2.43;;;;;;;16.69;59.59;100654.13;4968724;28;96626;-56
2023/08/27 06:02:47;;;;;;;2.00;1.80;;;;;;;16.69;59.52;100648.56;4968935;28;104326;-57
2023/08/27 06:05:13;;;;;;;2.03;1.93;;;;;;;16.69;59.51;100648.56;4972192;28;97307;-56
2023/08/27 06:07:39;;;;;;;2.33;2.23;;;;;;;16.73;59.53;100654.56;4971062;28;97229;-56
2023/08/27 06:10:05;;;;;;;2.67;2.50;;;;;;;16.74;59.79;100654.03;4972204;28;97493;-56
2023/08/27 06:12:30;;;;;;;2.20;2.10;;;;;;;16.80;59.70;100654.66;4974955;28;96985;-56
2023/08/27 06:14:56;;;;;;;1.70;1.60;;;;;;;16.84;59.55;100648.81;4969620;28;97138;-56
2023/08/27 06:17:22;;;;;;;2.17;2.07;;;;;;;16.89;59.66;100650.69;4968351;28;96570;-56
2023/08/27 06:19:47;;;;;;;2.50;2.20;;;;;;;16.92;59.83;100649.63;4967705;28;97391;-56
2023/08/27 06:22:12;;;;;;;2.20;2.10;;;;;;;16.95;59.79;100651.34;4967206;28;96832;-55
2023/08/27 06:24:38;;;;;;;1.80;1.70;;;;;;;16.99;59.95;100655.28;4975503;28;97705;-55
2023/08/27 06:27:03;;;;;;;2.03;1.93;;;;;;;17.04;59.78;100662.75;4969736;28;96950;-55
2023/08/27 06:29:28;;;;;;;2.33;2.17;;;;;;;17.10;59.84;100671.00;4969594;28;96707;-56
2023/08/27 06:31:54;;;;;;;5.03;2.37;;;;;;;17.14;59.80;100660.31;4969470;28;97168;-56
2023/08/27 06:34:19;;;;;;;1.73;1.63;;;;;;;17.20;59.76;100663.69;4971602;28;97259;-57
2023/08/27 06:36:44;;;;;;;2.00;1.83;;;;;;;17.29;59.73;100656.94;4972659;28;96779;-54
2023/08/27 06:39:09;;;;;;;1.90;1.80;;;;;;;17.35;59.85;100663.88;4969575;28;100016;-56
2023/08/27 06:41:35;;;;;;;3.53;2.10;;;;;;;17.43;59.88;100661.91;4971951;28;103302;-57
2023/08/27 06:44:00;;;;;;;1.80;1.70;;;;;;;17.49;59.95;100650.69;4969907;28;97072;-56
2023/08/27 06:46:25;;;;;;;2.20;2.10;;;;;;;17.54;59.86;100638.72;4966735;28;97331;-57
2023/08/27 06:48:51;;;;;;;2.00;1.90;;;;;;;17.55;59.78;100640.94;4970453;28;97341;-55
2023/08/27 06:51:16;;;;;;;2.10;2.00;;;;;;;17.60;59.95;100644.91;4972316;28;96949;-56
2023/08/27 06:53:41;;;;;;;1.80;1.70;;;;;;;17.60;59.90;100654.00;4967435;28;96677;-56
2023/08/27 06:56:07;;;;;;;2.70;2.00;;;;;;;17.64;60.11;100657.19;4972678;28;96859;-56
2023/08/27 06:58:32;;;;;;;2.60;1.63;;;;;;;17.65;59.97;100655.88;4969615;28;97296;-58
2023/08/27 07:00:57;;;;;;;2.03;1.83;;;;;;;17.68;60.10;100652.03;4968898;28;97181;-55
2023/08/27 07:03:23;;;;;;;2.37;2.17;;;;;;;17.75;60.04;100664.53;4967696;28;97180;-54
2023/08/27 07:05:48;;;;;;;2.13;1.70;;;;;;;17.79;60.19;100657.34;4971659;28;96705;-56
2023/08/27 07:08:14;;;;;;;1.60;1.50;;;;;;;17.84;60.25;100662.00;4970811;28;106429;-56
2023/08/27 07:10:39;;;;;;;1.97;1.87;;;;;;;17.92;60.31;100670.44;4976759;28;97229;-57
2023/08/27 07:13:05;;;;;;;1.80;1.70;;;;;;;18.03;60.32;100672.19;4970729;28;96654;-56
2023/08/27 07:15:30;;;;;;;1.70;1.60;;;;;;;18.12;60.38;100674.50;4970984;28;96847;-55
2023/08/27 07:17:55;;;;;;;1.80;1.70;;;;;;;18.22;60.18;100672.72;4971238;28;97946;-55
2023/08/27 07:20:22;;;;;;;1.80;1.70;;;;;;;18.30;60.24;100670.75;4971490;28;97083;-57
2023/08/27 07:22:48;;;;;;;1.87;1.77;;;;;;;18.38;60.56;100654.84;4968195;28;97270;-57
2023/08/27 07:25:13;;;;;;;1.93;1.73;;;;;;;18.45;60.29;100660.50;4972390;28;96763;-57
2023/08/27 07:27:39;;;;;;;5.13;1.83;;;;;;;18.54;60.34;100673.91;4969311;28;97508;-55
2023/08/27 07:30:05;;;;;;;1.40;1.20;;;;;;;18.63;60.19;100669.91;4965945;28;97624;-56
2023/08/27 07:32:30;;;;;;;1.30;1.20;;;;;;;18.74;60.32;100666.06;4970910;28;97367;-56
2023/08/27 07:34:55;;;;;;;1.40;1.30;;;;;;;18.83;60.32;100657.94;4971000;28;97303;-57
2023/08/27 07:37:21;;;;;;;1.57;1.40;;;;;;;18.93;60.43;100670.06;4970149;28;97159;-57
2023/08/27 07:39:46;;;;;;;1.60;1.50;;;;;;;19.05;60.20;100659.31;4965033;28;97308;-57
2023/08/27 07:42:11;;;;;;;1.77;1.23;;;;;;;19.13;60.30;100646.91;4969368;28;96927;-56
2023/08/27 07:44:37;;;;;;;1.60;1.50;;;;;;;19.21;60.31;100655.31;4961376;28;98136;-57
2023/08/27 07:47:03;;;;;;;2.90;1.40;;;;;;;19.27;60.15;100673.38;4965294;28;97499;-56
2023/08/27 07:49:28;;;;;;;1.93;1.80;;;;;;;19.36;60.39;100680.50;4967084;28;97250;-57
2023/08/27 07:51:54;;;;;;;1.50;1.40;;;;;;;19.42;60.18;100681.81;4970482;28;97244;-56
2023/08/27 07:54:19;;;;;;;1.73;1.63;;;;;;;19.50;60.08;100667.91;4968385;28;97390;-57
2023/08/27 07:56:44;;;;;;;2.40;1.57;;;;;;;19.59;60.12;100661.03;4971085;28;97257;-57
2023/08/27 07:59:10;;;;;;;1.57;1.47;;;;;;;19.69;60.29;100664.78;4972638;28;97478;-56
2023/08/27 08:01:35;;;;;;;1.57;1.47;;;;;;;19.81;60.02;100651.97;4975223;28;97022;-56
2023/08/27 08:04:01;;;;;;;2.50;1.40;;;;;;;19.95;59.88;100656.06;4968708;28;96811;-57
2023/08/27 08:06:26;;;;;;;1.50;1.40;;;;;;;20.09;59.83;100654.59;4964085;28;97446;-56
2023/08/27 08:08:52;;;;;;;1.30;1.20;;;;;;;20.23;59.57;100655.91;4968970;28;96796;-57
2023/08/27 08:11:17;;;;;;;1.57;1.37;;;;;;;20.32;59.64;100660.19;4970681;28;96876;-57
2023/08/27 08:13:44;;;;;;;1.40;1.30;;;;;;;20.39;59.51;100657.38;4970210;28;98831;-57
2023/08/27 08:16:10;;;;;;;2.00;1.50;;;;;;;20.48;59.52;100644.88;4968407;28;99792;-56
2023/08/27 08:18:36;;;;;;;1.60;1.40;;;;;;;20.57;59.46;100633.88;4968087;28;97101;-56
2023/08/27 08:21:02;;;;;;;1.37;1.17;;;;;;;20.63;59.26;100654.00;4968002;28;96782;-56
2023/08/27 08:23:27;;;;;;;0.90;0.90;;;;;;;20.71;59.08;100642.78;4969107;28;97152;-56
2023/08/27 08:25:52;;;;;;;1.60;1.50;;;;;;;20.78;59.08;100642.00;4967589;28;96727;-57
2023/08/27 08:28:18;;;;;;;1.07;1.00;;;;;;;20.81;59.14;100633.25;4970987;28;98513;-57
2023/08/27 08:30:45;;;;;;;4.73;1.40;;;;;;;20.88;59.13;100632.47;4968209;28;96655;-56
2023/08/27 08:33:10;;;;;;;1.50;1.33;;;;;;;20.95;59.10;100633.75;4972127;28;97260;-57
2023/08/27 08:35:36;;;;;;;1.40;1.30;;;;;;;21.05;59.15;100636.72;4967702;28;96857;-56
2023/08/27 08:38:01;;;;;;;2.07;1.60;;;;;;;21.16;58.92;100634.28;4967281;28;98426;-57
2023/08/27 08:40:26;;;;;;;1.53;1.00;;;;;;;21.30;58.91;100646.69;4967944;28;97145;-57
2023/08/27 08:42:57;;;;;;;1.20;1.20;;;;;;;21.45;58.79;100634.66;4974575;28;97573;-56
2023/08/27 08:45:41;;;;;;;1.30;1.20;;;;;;;21.61;58.59;100638.84;4968863;28;97198;-55
2023/08/27 08:48:07;;;;;;;1.57;1.47;;;;;;;21.76;58.30;100635.19;4966961;28;96671;-58
2023/08/27 08:50:35;;;;;;;1.40;1.30;;;;;;;21.95;58.10;100621.47;4975909;28;97375;-56
2023/08/27 08:53:13;;;;;;;1.57;1.30;;;;;;;22.07;57.47;100631.63;4972963;28;96809;-57
2023/08/27 08:55:45;;;;;;;1.43;1.33;;;;;;;22.16;57.36;100642.22;4968955;28;97352;-57
2023/08/27 08:58:13;;;;;;;1.10;1.00;;;;;;;22.25;57.26;100646.44;4967437;28;97110;-56
2023/08/27 09:00:39;;;;;;;3.00;1.50;;;;;;;22.36;57.37;100654.34;4967280;28;96778;-57
2023/08/27 09:03:04;;;;;;;1.20;1.10;;;;;;;22.49;57.22;100653.28;4969793;28;96767;-56
2023/08/27 09:05:32;;;;;;;1.27;1.17;;;;;;;22.67;57.12;100647.13;4967868;28;97389;-57
2023/08/27 09:07:58;;;;;;;1.30;1.20;;;;;;;22.84;56.61;100649.22;4968436;28;97246;-57
2023/08/27 09:10:27;;;;;;;1.10;1.10;;;;;;;22.98;56.32;100645.47;4972413;28;96718;-56
2023/08/27 09:12:56;;;;;;;1.33;1.10;;;;;;;23.08;55.97;100651.91;4970079;28;97240;-56
2023/08/27 09:15:22;;;;;;;2.53;1.17;;;;;;;23.12;55.94;100648.69;4970895;28;96851;-58
2023/08/27 09:17:48;;;;;;;1.43;1.23;;;;;;;23.19;55.93;100639.44;4969010;28;97779;-56
2023/08/27 09:20:13;;;;;;;1.57;1.03;;;;;;;23.29;55.62;100625.44;4968835;28;97140;-57
2023/08/27 09:22:40;;;;;;;1.10;1.00;;;;;;;23.39;55.15;100618.59;4968698;28;97292;-58
2023/08/27 09:25:06;;;;;;;1.77;1.20;;;;;;;23.49;55.17;100633.44;4963825;28;97643;-57
2023/08/27 09:27:32;;;;;;;1.57;1.17;;;;;;;23.61;54.86;100639.97;4967870;28;97548;-57
2023/08/27 09:30:00;;;;;;;1.63;1.10;;;;;;;23.69;54.46;100635.00;4969821;28;96972;-55
2023/08/27 09:32:26;;;;;;;1.50;1.40;;;;;;;23.75;54.04;100645.97;4969428;28;97429;-58
2023/08/27 09:35:02;;;;;;;1.07;0.97;;;;;;;23.79;52.95;100635.03;4969006;28;97548;-58
2023/08/27 09:37:36;;;;;;;1.50;1.33;;;;;;;23.85;53.58;100636.22;4966132;28;96894;-55
2023/08/27 09:40:04;;;;;;;1.50;1.20;;;;;;;24.01;53.47;100627.56;4967029;28;97191;-56
2023/08/27 09:42:31;;;;;;;1.40;1.20;;;;;;;24.17;53.42;100620.38;4969123;28;97094;-57
2023/08/27 09:44:57;;;;;;;0.83;0.83;;;;;;;24.26;53.07;100614.78;4970329;28;96886;-57
2023/08/27 09:47:30;;;;;;;1.30;1.13;;;;;;;24.36;52.80;100618.34;4967324;28;97272;-57
2023/08/27 09:49:56;;;;;;;1.83;1.13;;;;;;;24.52;52.96;100619.56;4967271;28;96758;-58
2023/08/27 09:52:26;;;;;;;1.50;1.20;;;;;;;24.65;52.29;100609.94;4967332;28;96914;-57
2023/08/27 09:54:52;;;;;;;1.40;1.07;;;;;;;24.70;52.20;100614.53;4967485;28;97711;-58
2023/08/27 09:57:18;;;;;;;1.30;1.20;;;;;;;24.72;52.47;100616.75;4966831;28;96660;-57
2023/08/27 09:59:44;;;;;;;1.07;0.97;;;;;;;24.80;52.29;100606.84;4965609;28;97115;-57
2023/08/27 10:02:14;;;;;;;1.50;1.20;;;;;;;24.88;51.79;100617.97;4970787;28;97028;-58
2023/08/27 10:04:54;;;;;;;0.97;0.87;;;;;;;24.88;50.23;100606.69;4968390;28;97496;-58
2023/08/27 10:07:20;;;;;;;1.30;1.00;;;;;;;24.88;51.68;100601.78;4970444;28;97340;-57
2023/08/27 10:09:53;;;;;;;1.40;0.90;;;;;;;24.94;51.57;100610.69;4966030;28;97406;-58
2023/08/27 10:12:21;;;;;;;2.30;0.90;;;;;;;25.03;51.73;100604.28;4962958;28;96910;-57
2023/08/27 10:14:47;;;;;;;2.43;1.27;;;;;;;25.14;51.19;100600.84;4963587;28;97168;-57
2023/08/27 10:17:15;;;;;;;0.80;0.73;;;;;;;25.19;50.85;100605.44;4968063;28;97094;-59
2023/08/27 10:19:40;;;;;;;0.87;0.70;;;;;;;25.21;50.07;100604.84;4962638;28;97266;-58
2023/08/27 10:22:06;;;;;;;0.90;0.80;;;;;;;25.18;50.13;100594.78;4970867;28;97398;-57
2023/08/27 10:24:33;;;;;;;2.67;0.60;;;;;;;25.20;50.26;100589.28;4967939;28;96829;-57
2023/08/27 10:27:03;;;;;;;0.70;0.50;;;;;;;25.17;49.28;100585.59;4965977;28;98836;-57
2023/08/27 10:29:29;;;;;;;1.00;0.80;;;;;;;25.12;49.82;100586.63;4969089;28;97031;-58
2023/08/27 10:31:55;;;;;;;0.70;0.63;;;;;;;25.06;49.82;100583.41;4968690;28;97445;-58
2023/08/27 10:34:23;;;;;;;1.20;0.70;;;;;;;25.04;49.82;100574.81;4964923;28;97381;-57
2023/08/27 10:36:50;;;;;;;0.93;0.83;;;;;;;25.08;49.48;100560.25;4970380;28;97150;-58
2023/08/27 10:39:16;;;;;;;1.83;0.90;;;;;;;25.04;49.35;100580.44;4965384;28;97209;-58
2023/08/27 10:41:42;;;;;;;0.83;0.73;;;;;;;25.01;49.42;100569.66;4973292;28;96837;-58
2023/08/27 10:44:09;;;;;;;0.83;0.77;;;;;;;25.03;49.01;100581.75;4967437;28;97243;-59
2023/08/27 10:46:35;;;;;;;0.80;0.73;;;;;;;24.94;49.31;100588.19;4969722;28;97239;-58
2023/08/27 10:49:15;;;;;;;3.20;0.73;;;;;;;24.82;48.22;100583.72;4967573;28;96829;-59
2023/08/27 10:51:41;;;;;;;1.70;0.83;;;;;;;24.63;49.76;100586.53;4965239;28;97200;-58
2023/08/27 10:54:07;;;;;;;1.20;0.87;;;;;;;24.50;49.91;100601.78;4966813;28;97389;-59
2023/08/27 10:56:39;;;;;;;0.87;0.70;;;;;;;24.34;49.70;100589.31;4965700;28;97274;-58
2023/08/27 10:59:09;;;;;;;1.00;0.70;;;;;;;24.17;49.90;100584.59;4967952;28;97140;-58
2023/08/27 11:01:58;;;;;;;0.80;0.70;;;;;;;24.01;49.50;100588.94;4963270;28;97042;-58
2023/08/27 11:04:37;;;;;;;0.70;0.67;;;;;;;23.81;49.20;100588.16;4965538;28;123124;-57
2023/08/27 11:07:17;;;;;;;0.90;0.50;;;;;;;23.73;49.42;100579.13;4964814;28;97766;-58
2023/08/27 11:09:56;;;;;;;0.70;0.53;;;;;;;23.71;49.27;100589.47;4967195;28;96697;-59
2023/08/27 11:12:25;;;;;;;0.70;0.50;;;;;;;23.66;49.89;100591.22;4965769;28;96862;-58
2023/08/27 11:14:51;;;;;;;2.00;0.60;;;;;;;23.66;49.70;100593.28;4965146;28;98001;-57
2023/08/27 11:17:27;;;;;;;0.67;0.53;;;;;;;23.66;49.18;100596.84;4965293;28;97078;-59
2023/08/27 11:19:54;;;;;;;0.70;0.50;;;;;;;23.64;49.69;100584.69;4965205;28;97303;-58
2023/08/27 11:22:22;;;;;;;0.70;0.50;;;;;;;23.59;49.41;100580.84;4970724;28;97107;-58